Time;durP1;ratioP1;P1;durP2;ratioP2;P2;SDS_P1;SDS_P2;PMS_P1;PMS_P2;Temp;Humidity;BMP_temperature;BMP_pressure;BME280_temperature;BME280_humidity;BME280_pressure;Samples;Min_cycle;Max_cycle;Signal;HPM_P1;HPM_P2
2023/12/15 00:00:16;;;;;;;5.10;4.68;;;5.40;99.90;;;;;;5128091;27;20092;-81
2023/12/15 00:02:42;;;;;;;3.47;1.25;;;5.30;99.90;;;;;;5123377;27;20453;-80
2023/12/15 00:05:08;;;;;;;;;;;5.30;99.90;;;;;;5130592;27;20095;-81
2023/12/15 00:07:34;;;;;;;1.27;1.17;;;5.30;99.90;;;;;;5125838;27;20371;-80
2023/12/15 00:09:59;;;;;;;0.90;0.90;;;5.30;99.90;;;;;;5107814;27;20034;-81
2023/12/15 00:12:25;;;;;;;2.65;1.60;;;5.40;99.90;;;;;;5127627;27;20130;-81
2023/12/15 00:14:51;;;;;;;1.55;1.45;;;5.40;99.90;;;;;;5134176;27;20464;-82
2023/12/15 00:17:17;;;;;;;1.00;1.00;;;5.40;99.90;;;;;;5135619;27;20541;-78
2023/12/15 00:19:43;;;;;;;;;;;5.40;99.90;;;;;;5128265;27;20114;-78
2023/12/15 00:22:09;;;;;;;0.73;0.73;;;5.70;99.90;;;;;;5131066;27;20002;-77
2023/12/15 00:24:35;;;;;;;0.65;0.65;;;5.50;99.90;;;;;;5129618;27;20187;-78
2023/12/15 00:27:00;;;;;;;0.70;0.70;;;5.50;99.90;;;;;;5126396;27;20046;-78
2023/12/15 00:29:26;;;;;;;0.70;0.70;;;5.50;99.90;;;;;;5124661;27;20116;-78
2023/12/15 00:31:52;;;;;;;0.57;0.57;;;5.50;99.90;;;;;;5127953;27;20047;-78
2023/12/15 00:34:17;;;;;;;1.25;1.25;;;5.90;99.90;;;;;;5133384;27;20057;-77
2023/12/15 00:36:43;;;;;;;1.35;1.35;;;5.50;99.90;;;;;;5128636;27;20116;-77
2023/12/15 00:39:09;;;;;;;0.73;0.73;;;5.50;99.90;;;;;;5116756;27;20091;-77
2023/12/15 00:41:35;;;;;;;6.03;3.42;;;5.70;99.90;;;;;;5118845;27;20042;-77
2023/12/15 00:44:02;;;;;;;0.60;0.60;;;5.60;99.90;;;;;;5133994;27;20559;-77
2023/12/15 00:46:28;;;;;;;2.30;2.10;;;5.60;99.90;;;;;;5088239;27;20071;-77
2023/12/15 00:48:54;;;;;;;2.15;2.05;;;5.80;99.90;;;;;;5112721;27;20175;-77
2023/12/15 00:51:19;;;;;;;1.77;1.48;;;5.60;99.90;;;;;;5129321;27;20047;-77
2023/12/15 00:53:45;;;;;;;1.27;1.20;;;5.90;99.90;;;;;;5135857;27;20085;-77
2023/12/15 00:56:11;;;;;;;1.85;1.67;;;5.70;99.90;;;;;;5130072;27;20046;-77
2023/12/15 00:58:36;;;;;;;0.80;0.80;;;5.70;99.90;;;;;;5128924;27;20027;-77
2023/12/15 01:01:02;;;;;;;1.45;1.38;;;5.70;99.90;;;;;;5130649;27;20103;-77
2023/12/15 01:03:30;;;;;;;1.42;1.33;;;5.70;99.90;;;;;;5130381;27;20070;-77
2023/12/15 01:05:56;;;;;;;2.78;2.58;;;5.70;99.90;;;;;;5128485;27;20507;-77
2023/12/15 01:08:22;;;;;;;1.05;1.05;;;5.80;99.90;;;;;;5129227;27;20078;-77
2023/12/15 01:10:48;;;;;;;1.10;1.10;;;5.70;99.90;;;;;;5111091;27;20498;-78
2023/12/15 01:13:14;;;;;;;1.88;1.77;;;5.70;99.90;;;;;;5129771;27;20391;-78
2023/12/15 01:15:40;;;;;;;1.13;1.02;;;5.70;99.90;;;;;;5128780;27;20117;-78
2023/12/15 01:18:05;;;;;;;1.10;1.10;;;5.70;99.90;;;;;;5129033;27;20051;-77
2023/12/15 01:20:31;;;;;;;1.17;1.13;;;5.70;99.90;;;;;;5130936;27;20487;-77
2023/12/15 01:22:57;;;;;;;1.75;1.23;;;5.80;99.90;;;;;;5110643;27;20043;-77
2023/12/15 01:25:23;;;;;;;0.43;0.43;;;5.80;99.90;;;;;;5138659;27;20027;-78
2023/12/15 01:27:48;;;;;;;1.33;1.30;;;5.80;99.90;;;;;;5113950;27;20156;-78
2023/12/15 01:30:14;;;;;;;0.65;0.65;;;5.90;99.90;;;;;;5111874;27;20046;-77
2023/12/15 01:32:40;;;;;;;9.90;1.67;;;5.80;99.90;;;;;;5088276;27;20043;-77
2023/12/15 01:35:06;;;;;;;0.80;0.80;;;5.90;99.90;;;;;;5128726;27;20119;-77
2023/12/15 01:37:31;;;;;;;1.17;1.13;;;5.90;99.90;;;;;;5130472;27;20418;-77
2023/12/15 01:39:57;;;;;;;0.50;0.50;;;5.90;99.90;;;;;;5128184;27;20051;-77
2023/12/15 01:42:23;;;;;;;1.67;1.40;;;5.90;99.90;;;;;;5128339;27;20491;-78
2023/12/15 01:44:49;;;;;;;2.10;0.88;;;6.00;99.90;;;;;;5128368;27;20039;-78
2023/12/15 01:47:17;;;;;;;0.90;0.90;;;6.20;99.90;;;;;;5128390;27;20039;-78
2023/12/15 01:49:46;;;;;;;1.33;1.33;;;5.90;99.90;;;;;;5111565;27;20030;-78
2023/12/15 01:52:12;;;;;;;1.23;1.13;;;6.00;99.90;;;;;;5127842;27;20035;-78
2023/12/15 01:54:38;;;;;;;0.90;0.90;;;6.00;99.90;;;;;;5134006;27;20031;-78
2023/12/15 01:57:04;;;;;;;1.52;1.23;;;6.30;99.90;;;;;;5127675;27;20384;-78
2023/12/15 01:59:43;;;;;;;;;;;6.00;99.90;;;;;;5128163;27;20391;-78
2023/12/15 02:02:09;;;;;;;0.60;0.60;;;6.10;99.90;;;;;;5125832;27;19915;-78
2023/12/15 02:04:35;;;;;;;1.73;1.65;;;6.10;99.90;;;;;;5085333;27;20084;-79
2023/12/15 02:07:00;;;;;;;1.13;1.10;;;6.10;99.90;;;;;;5108177;27;20046;-78
2023/12/15 02:09:26;;;;;;;0.60;0.60;;;6.50;99.90;;;;;;5133429;27;20046;-78
2023/12/15 02:11:52;;;;;;;0.77;0.77;;;6.50;99.90;;;;;;5112955;27;20050;-78
2023/12/15 02:14:17;;;;;;;1.00;1.00;;;6.30;99.90;;;;;;5131059;27;20499;-78
2023/12/15 02:16:43;;;;;;;1.05;1.05;;;;;;;;;;5111129;27;20050;-77
2023/12/15 02:19:09;;;;;;;1.05;1.05;;;6.20;99.90;;;;;;5125326;27;20050;-77
2023/12/15 02:21:35;;;;;;;2.53;1.85;;;6.20;99.90;;;;;;5127296;27;20076;-77
2023/12/15 02:24:00;;;;;;;0.90;0.90;;;6.30;99.90;;;;;;5127389;27;20549;-77
2023/12/15 02:26:26;;;;;;;1.05;1.05;;;6.30;99.90;;;;;;5127364;27;20390;-78
2023/12/15 02:28:52;;;;;;;0.95;0.95;;;6.30;99.90;;;;;;5127153;27;20072;-77
2023/12/15 02:31:20;;;;;;;7.80;2.70;;;6.30;99.90;;;;;;5126182;27;20088;-76
2023/12/15 02:33:46;;;;;;;2.05;1.80;;;6.30;99.90;;;;;;5109126;27;20079;-77
2023/12/15 02:36:20;;;;;;;0.68;0.68;;;6.30;99.90;;;;;;5128045;27;20661;-77
2023/12/15 02:38:45;;;;;;;1.15;0.80;;;6.30;99.90;;;;;;5126623;27;20427;-77
2023/12/15 02:41:12;;;;;;;2.92;2.83;;;6.30;99.90;;;;;;5127795;27;20045;-77
2023/12/15 02:43:38;;;;;;;3.15;1.50;;;6.20;99.90;;;;;;5131228;27;20523;-77
2023/12/15 02:46:04;;;;;;;1.00;0.95;;;6.30;99.90;;;;;;5130679;27;20039;-76
2023/12/15 02:48:30;;;;;;;2.90;2.65;;;6.30;99.90;;;;;;5132365;27;20464;-78
2023/12/15 02:50:57;;;;;;;3.67;2.50;;;6.20;99.90;;;;;;5116778;27;20085;-77
2023/12/15 02:53:22;;;;;;;1.98;1.30;;;6.30;99.90;;;;;;5128470;27;20084;-79
2023/12/15 02:55:49;;;;;;;0.80;0.80;;;6.40;99.90;;;;;;5121844;27;20043;-79
2023/12/15 02:58:15;;;;;;;2.67;2.53;;;6.30;99.90;;;;;;5135131;27;20058;-77
2023/12/15 03:00:41;;;;;;;1.58;1.48;;;6.30;99.90;;;;;;5132338;27;20042;-77
2023/12/15 03:03:07;;;;;;;1.67;1.58;;;6.30;99.90;;;;;;5091112;27;20031;-78
2023/12/15 03:05:32;;;;;;;1.98;1.63;;;6.40;99.90;;;;;;5134131;27;20035;-77
2023/12/15 03:07:58;;;;;;;2.25;2.15;;;6.30;99.90;;;;;;5132283;27;20475;-78
2023/12/15 03:10:24;;;;;;;2.83;2.50;;;6.30;99.90;;;;;;5139189;27;20055;-78
2023/12/15 03:12:50;;;;;;;1.02;1.00;;;6.30;99.90;;;;;;5129784;27;20047;-77
2023/12/15 03:15:15;;;;;;;1.00;1.00;;;6.20;99.90;;;;;;5115657;27;20091;-78
2023/12/15 03:17:41;;;;;;;0.70;0.70;;;6.20;99.90;;;;;;5115087;27;20127;-78
2023/12/15 03:20:07;;;;;;;1.40;1.40;;;6.10;99.90;;;;;;5134911;27;20118;-77
2023/12/15 03:22:33;;;;;;;0.50;0.50;;;6.00;99.90;;;;;;5136816;27;20476;-77
2023/12/15 03:24:59;;;;;;;1.40;1.17;;;6.00;99.90;;;;;;5129138;27;20055;-77
2023/12/15 03:27:24;;;;;;;0.68;0.68;;;5.90;99.90;;;;;;5113321;27;20046;-76
2023/12/15 03:29:50;;;;;;;0.88;0.88;;;5.80;99.90;;;;;;5129250;27;20039;-76
2023/12/15 03:32:16;;;;;;;10.45;2.90;;;5.80;99.90;;;;;;5130955;27;20063;-77
2023/12/15 03:34:41;;;;;;;1.60;1.50;;;5.70;99.90;;;;;;5131301;27;20067;-77
2023/12/15 03:37:08;;;;;;;1.27;1.20;;;5.30;99.90;;;;;;5129173;27;20035;-77
2023/12/15 03:39:35;;;;;;;3.40;2.97;;;5.70;99.90;;;;;;5130795;27;20046;-77
2023/12/15 03:42:06;;;;;;;1.38;1.27;;;6.10;99.90;;;;;;5130415;27;20113;-76
2023/12/15 03:44:32;;;;;;;1.55;0.80;;;5.80;99.90;;;;;;5131850;27;20080;-77
2023/12/15 03:46:58;;;;;;;0.73;0.73;;;5.60;99.90;;;;;;5130595;27;20042;-77
2023/12/15 03:49:23;;;;;;;2.63;2.08;;;5.60;99.90;;;;;;5129965;27;20403;-78
2023/12/15 03:51:49;;;;;;;1.38;1.38;;;5.60;99.90;;;;;;5112150;27;20058;-78
2023/12/15 03:54:15;;;;;;;1.98;1.73;;;5.80;99.90;;;;;;5112502;27;20046;-78
2023/12/15 03:56:40;;;;;;;2.50;1.15;;;5.60;99.90;;;;;;5129484;27;20100;-77
2023/12/15 03:59:06;;;;;;;3.65;1.38;;;5.60;99.90;;;;;;5130390;27;20036;-77
2023/12/15 04:01:31;;;;;;;1.05;0.88;;;5.60;99.90;;;;;;5128173;27;20035;-77
2023/12/15 04:03:58;;;;;;;1.52;1.45;;;5.50;99.90;;;;;;5129197;27;20035;-76
2023/12/15 04:06:24;;;;;;;;;;;5.70;99.90;;;;;;5112891;27;20831;-77
2023/12/15 04:08:49;;;;;;;1.67;1.58;;;5.50;99.90;;;;;;5132033;27;20005;-76
2023/12/15 04:11:16;;;;;;;1.83;1.77;;;5.50;99.90;;;;;;5128997;27;20455;-77
2023/12/15 04:13:42;;;;;;;2.67;1.23;;;5.50;99.90;;;;;;5130773;27;20076;-76
2023/12/15 04:16:08;;;;;;;0.70;0.70;;;5.50;99.90;;;;;;5131085;27;20047;-77
2023/12/15 04:18:34;;;;;;;1.60;1.38;;;5.40;99.90;;;;;;5129560;27;20055;-77
2023/12/15 04:21:03;;;;;;;0.77;0.77;;;5.40;99.90;;;;;;5132380;27;20077;-76
2023/12/15 04:23:29;;;;;;;1.45;1.35;;;5.50;99.90;;;;;;5128594;27;20039;-77
2023/12/15 04:25:57;;;;;;;3.15;3.00;;;5.30;99.90;;;;;;5128880;27;20040;-76
2023/12/15 04:28:26;;;;;;;0.68;0.68;;;5.30;99.90;;;;;;5128538;27;20035;-77
2023/12/15 04:30:52;;;;;;;0.80;0.80;;;5.30;99.90;;;;;;5110813;27;20393;-77
2023/12/15 04:33:18;;;;;;;1.05;1.05;;;5.20;99.90;;;;;;5111677;27;20456;-77
2023/12/15 04:35:44;;;;;;;3.40;2.42;;;5.20;99.90;;;;;;5111872;27;20046;-77
2023/12/15 04:38:09;;;;;;;0.85;0.85;;;5.20;99.90;;;;;;5113064;27;20060;-77
2023/12/15 04:40:35;;;;;;;1.30;1.20;;;5.20;99.90;;;;;;5133497;27;20045;-77
2023/12/15 04:43:01;;;;;;;1.45;1.35;;;5.30;99.90;;;;;;5086400;27;20125;-77
2023/12/15 04:45:27;;;;;;;1.10;1.10;;;5.40;99.90;;;;;;5127194;27;20039;-77
2023/12/15 04:47:54;;;;;;;1.65;1.40;;;5.50;99.90;;;;;;5128889;27;20031;-76
2023/12/15 04:50:20;;;;;;;3.95;1.05;;;5.50;99.90;;;;;;5131902;27;20510;-77
2023/12/15 04:52:46;;;;;;;0.70;0.70;;;5.60;99.90;;;;;;5112241;27;20078;-77
2023/12/15 04:55:12;;;;;;;0.70;0.70;;;5.60;99.90;;;;;;5111429;27;20035;-77
2023/12/15 04:57:37;;;;;;;0.60;0.60;;;5.60;99.90;;;;;;5130752;27;20114;-77
2023/12/15 05:00:04;;;;;;;1.00;1.00;;;5.50;99.90;;;;;;5128060;27;20039;-77
2023/12/15 05:02:30;;;;;;;1.25;1.02;;;5.40;99.90;;;;;;5128447;27;20043;-77
2023/12/15 05:04:56;;;;;;;1.13;1.02;;;5.60;99.90;;;;;;5108939;27;20453;-77
2023/12/15 05:07:21;;;;;;;0.77;0.77;;;5.40;99.90;;;;;;5110958;27;20035;-77
2023/12/15 05:09:47;;;;;;;1.92;1.77;;;5.40;99.90;;;;;;5128159;27;20047;-77
2023/12/15 05:12:13;;;;;;;0.40;0.40;;;5.40;99.90;;;;;;5111689;27;20039;-77
2023/12/15 05:14:39;;;;;;;1.90;1.70;;;5.70;99.90;;;;;;5128396;27;20051;-77
2023/12/15 05:17:04;;;;;;;0.60;0.60;;;5.40;99.90;;;;;;5110391;27;20046;-77
2023/12/15 05:19:30;;;;;;;0.88;0.88;;;5.30;99.90;;;;;;5126943;27;20059;-77
2023/12/15 05:21:56;;;;;;;0.93;0.93;;;5.30;99.90;;;;;;5128635;27;20615;-76
2023/12/15 05:24:21;;;;;;;0.50;0.50;;;5.20;99.90;;;;;;5131658;27;20034;-76
2023/12/15 05:26:47;;;;;;;0.75;0.75;;;5.10;99.90;;;;;;5128386;27;20519;-76
2023/12/15 05:29:13;;;;;;;2.30;1.55;;;5.30;99.90;;;;;;5128688;27;20039;-77
2023/12/15 05:31:38;;;;;;;0.70;0.70;;;5.00;99.90;;;;;;5128975;27;20474;-76
2023/12/15 05:34:05;;;;;;;0.90;0.90;;;4.90;99.90;;;;;;5130132;27;20077;-76
2023/12/15 05:36:31;;;;;;;0.73;0.73;;;4.90;99.90;;;;;;5127727;27;20047;-77
2023/12/15 05:38:56;;;;;;;1.92;1.10;;;4.90;99.90;;;;;;5128575;27;20054;-77
2023/12/15 05:41:22;;;;;;;1.02;1.02;;;4.90;99.90;;;;;;5109645;27;20089;-77
2023/12/15 05:43:48;;;;;;;0.63;0.63;;;4.90;99.90;;;;;;5111123;27;20034;-78
2023/12/15 05:46:14;;;;;;;0.50;0.50;;;4.80;99.90;;;;;;5129855;27;20078;-78
2023/12/15 05:48:40;;;;;;;0.95;0.95;;;4.80;99.90;;;;;;5129017;27;20039;-76
2023/12/15 05:51:07;;;;;;;0.80;0.80;;;4.80;99.90;;;;;;5109668;27;20545;-77
2023/12/15 05:53:33;;;;;;;0.47;0.47;;;4.90;99.90;;;;;;5129193;27;20042;-77
2023/12/15 05:55:58;;;;;;;0.77;0.77;;;5.10;99.90;;;;;;5127981;27;20049;-78
2023/12/15 05:58:24;;;;;;;0.57;0.57;;;5.10;99.90;;;;;;5109900;27;20054;-77
2023/12/15 06:00:50;;;;;;;0.85;0.85;;;5.10;99.90;;;;;;5094438;27;21258;-76
2023/12/15 06:03:17;;;;;;;0.50;0.50;;;5.40;99.90;;;;;;5127095;27;20042;-76
2023/12/15 06:05:43;;;;;;;1.65;1.55;;;5.20;99.90;;;;;;5128193;27;20055;-77
2023/12/15 06:08:09;;;;;;;0.57;0.57;;;5.10;99.90;;;;;;5127691;27;20102;-76
2023/12/15 06:10:35;;;;;;;0.80;0.80;;;5.10;99.90;;;;;;5126429;27;20066;-77
2023/12/15 06:13:00;;;;;;;0.63;0.63;;;5.10;99.90;;;;;;5110954;28;20039;-76
2023/12/15 06:15:26;;;;;;;1.85;1.75;;;5.10;99.90;;;;;;5125399;27;20127;-76
2023/12/15 06:17:51;;;;;;;1.27;0.75;;;5.20;99.90;;;;;;5127074;27;20092;-75
2023/12/15 06:20:17;;;;;;;0.47;0.47;;;5.20;99.90;;;;;;5127446;27;20047;-77
2023/12/15 06:22:43;;;;;;;0.55;0.55;;;5.20;99.90;;;;;;5126438;27;20129;-76
2023/12/15 06:25:09;;;;;;;0.60;0.60;;;5.20;99.90;;;;;;5126774;27;20156;-77
2023/12/15 06:27:35;;;;;;;;;;;5.20;99.90;;;;;;5110416;28;20038;-76
2023/12/15 06:30:00;;;;;;;0.50;0.50;;;5.20;99.90;;;;;;5133572;27;19919;-76
2023/12/15 06:32:26;;;;;;;3.70;2.42;;;5.20;99.90;;;;;;5126776;27;20039;-77
2023/12/15 06:34:52;;;;;;;2.95;2.70;;;5.20;99.90;;;;;;5127478;27;20175;-77
2023/12/15 06:37:18;;;;;;;0.98;0.98;;;5.30;99.90;;;;;;5113023;27;20119;-76
2023/12/15 06:39:47;;;;;;;0.60;0.60;;;5.20;99.90;;;;;;5136269;27;20340;-77
2023/12/15 06:42:13;;;;;;;0.60;0.60;;;5.70;99.90;;;;;;5110811;27;20051;-77
2023/12/15 06:44:39;;;;;;;3.85;2.72;;;5.20;99.90;;;;;;5126623;27;20498;-76
2023/12/15 06:47:05;;;;;;;0.50;0.50;;;5.20;99.90;;;;;;5109251;28;20153;-77
2023/12/15 06:49:31;;;;;;;1.45;1.40;;;5.10;99.90;;;;;;5110364;27;20568;-77
2023/12/15 06:52:00;;;;;;;0.60;0.60;;;5.20;99.90;;;;;;5128604;27;20069;-77
2023/12/15 06:54:26;;;;;;;1.58;1.52;;;5.10;99.90;;;;;;5127594;27;20039;-78
2023/12/15 06:56:51;;;;;;;2.10;2.00;;;5.10;99.90;;;;;;5126310;27;20480;-76
2023/12/15 06:59:17;;;;;;;0.50;0.50;;;5.00;99.90;;;;;;5127685;27;20046;-77
2023/12/15 07:01:43;;;;;;;0.55;0.52;;;5.00;99.90;;;;;;5114581;27;20365;-77
2023/12/15 07:04:08;;;;;;;0.85;0.70;;;5.00;99.90;;;;;;5112162;28;20899;-79
2023/12/15 07:06:34;;;;;;;2.47;2.38;;;5.00;99.90;;;;;;5127187;27;20435;-77
2023/12/15 07:09:00;;;;;;;2.05;1.95;;;5.20;99.90;;;;;;5114397;28;20043;-77
2023/12/15 07:11:25;;;;;;;1.33;1.23;;;5.10;99.90;;;;;;5127430;27;20138;-78
2023/12/15 07:13:51;;;;;;;0.57;0.57;;;5.10;99.90;;;;;;5126783;27;20508;-76
2023/12/15 07:16:17;;;;;;;0.60;0.60;;;5.00;99.90;;;;;;5113817;28;20125;-79
2023/12/15 07:18:43;;;;;;;1.73;1.63;;;4.90;99.90;;;;;;5124275;27;20429;-78
2023/12/15 07:21:11;;;;;;;0.60;0.60;;;4.20;99.90;;;;;;5124458;27;20368;-77
2023/12/15 07:23:37;;;;;;;1.50;1.40;;;4.90;99.90;;;;;;5121345;28;20476;-79
2023/12/15 07:26:04;;;;;;;0.90;0.90;;;4.80;99.90;;;;;;5108755;27;20035;-79
2023/12/15 07:28:30;;;;;;;0.50;0.50;;;4.80;99.90;;;;;;5136411;27;20134;-80
2023/12/15 07:30:56;;;;;;;0.60;0.60;;;4.70;99.90;;;;;;5111088;27;20172;-79
2023/12/15 07:33:21;;;;;;;0.98;0.98;;;4.70;99.90;;;;;;5116813;27;20066;-80
2023/12/15 07:35:47;;;;;;;0.80;0.80;;;4.60;99.90;;;;;;5133269;27;20035;-78
2023/12/15 07:38:13;;;;;;;1.48;0.68;;;4.60;99.90;;;;;;5140798;27;20043;-80
2023/12/15 07:40:40;;;;;;;0.60;0.60;;;4.60;99.90;;;;;;5133541;27;20487;-78
2023/12/15 07:43:05;;;;;;;2.08;0.60;;;4.50;99.90;;;;;;5129836;27;20055;-80
2023/12/15 07:45:31;;;;;;;0.50;0.50;;;4.60;99.90;;;;;;5116047;27;20038;-79
2023/12/15 07:47:57;;;;;;;0.82;0.82;;;4.60;99.90;;;;;;5118269;27;20054;-77
2023/12/15 07:50:23;;;;;;;;;;;4.80;99.90;;;;;;5135349;27;20035;-77
2023/12/15 07:52:49;;;;;;;0.60;0.60;;;4.70;99.90;;;;;;5136259;27;19922;-77
2023/12/15 07:55:16;;;;;;;;;;;4.80;99.90;;;;;;5082625;27;20051;-77
2023/12/15 07:57:42;;;;;;;1.20;1.20;;;4.90;99.90;;;;;;5134620;27;19922;-78
2023/12/15 08:00:11;;;;;;;0.63;0.63;;;5.00;99.90;;;;;;5139049;27;20039;-78
2023/12/15 08:02:37;;;;;;;1.05;1.05;;;5.00;99.90;;;;;;5134336;27;20035;-80
2023/12/15 08:05:03;;;;;;;0.50;0.50;;;5.10;99.90;;;;;;5129562;27;20508;-78
2023/12/15 08:07:28;;;;;;;0.57;0.57;;;5.20;99.90;;;;;;5136365;27;20122;-80
2023/12/15 08:09:54;;;;;;;2.25;2.05;;;5.20;99.90;;;;;;5116194;27;20046;-79
2023/12/15 08:12:20;;;;;;;0.50;0.50;;;5.10;99.90;;;;;;5133033;27;20136;-78
2023/12/15 08:14:45;;;;;;;0.50;0.50;;;5.20;99.90;;;;;;5132433;27;20050;-80
2023/12/15 08:17:12;;;;;;;1.27;0.77;;;5.30;99.90;;;;;;5135827;27;20046;-81
2023/12/15 08:19:38;;;;;;;0.57;0.57;;;5.20;99.90;;;;;;5132791;27;20059;-81
2023/12/15 08:22:04;;;;;;;0.70;0.70;;;5.30;99.90;;;;;;5104145;27;20163;-82
2023/12/15 08:24:29;;;;;;;0.70;0.70;;;5.40;99.90;;;;;;5108194;27;20046;-82
2023/12/15 08:26:57;;;;;;;0.50;0.50;;;5.50;99.90;;;;;;5124339;27;20042;-81
2023/12/15 08:29:23;;;;;;;0.70;0.70;;;5.60;99.90;;;;;;5119997;27;20492;-79
2023/12/15 08:31:49;;;;;;;1.33;1.25;;;5.60;99.90;;;;;;5133172;27;20041;-80
2023/12/15 08:34:15;;;;;;;0.57;0.57;;;5.70;99.90;;;;;;5122050;27;20121;-80
2023/12/15 08:36:41;;;;;;;;;;;5.80;99.90;;;;;;5134626;27;20042;-80
2023/12/15 08:39:06;;;;;;;1.52;1.50;;;5.80;99.90;;;;;;5137239;27;19930;-81
2023/12/15 08:41:32;;;;;;;0.50;0.50;;;5.90;99.90;;;;;;5139180;27;20091;-80
2023/12/15 08:43:58;;;;;;;0.50;0.50;;;6.00;99.90;;;;;;5126117;27;20103;-79
2023/12/15 08:46:24;;;;;;;0.45;0.45;;;5.90;99.90;;;;;;5135336;27;20034;-81
2023/12/15 08:48:51;;;;;;;0.50;0.50;;;5.80;99.90;;;;;;5121431;27;20054;-80
2023/12/15 08:51:17;;;;;;;1.05;1.05;;;5.70;99.90;;;;;;5133900;27;20047;-81
2023/12/15 08:53:43;;;;;;;0.88;0.88;;;5.70;99.90;;;;;;5146865;27;20051;-78
2023/12/15 08:56:09;;;;;;;;;;;5.70;99.90;;;;;;5120952;27;20113;-78
2023/12/15 08:58:35;;;;;;;0.68;0.68;;;5.70;99.90;;;;;;5137878;27;20440;-78
2023/12/15 09:01:01;;;;;;;;;;;5.80;99.90;;;;;;5126938;27;20047;-79
2023/12/15 09:03:27;;;;;;;0.60;0.60;;;5.80;99.90;;;;;;5111094;27;20421;-80
2023/12/15 09:05:53;;;;;;;1.25;1.25;;;5.90;99.90;;;;;;5131359;27;20042;-80
2023/12/15 09:08:19;;;;;;;0.60;0.60;;;5.80;99.90;;;;;;5110473;27;20051;-80
2023/12/15 09:10:51;;;;;;;0.63;0.63;;;5.90;99.90;;;;;;5132683;27;20095;-80
2023/12/15 09:13:18;;;;;;;3.13;2.17;;;5.90;99.90;;;;;;5129952;27;20468;-79
2023/12/15 09:15:43;;;;;;;0.40;0.40;;;6.00;99.90;;;;;;5127021;27;20035;-80
2023/12/15 09:18:09;;;;;;;0.57;0.55;;;6.00;99.90;;;;;;5124792;27;20448;-80
2023/12/15 09:20:35;;;;;;;0.65;0.65;;;6.10;99.90;;;;;;5126134;27;20072;-79
2023/12/15 09:23:10;;;;;;;1.13;1.08;;;6.10;99.90;;;;;;5126548;27;20043;-78
2023/12/15 09:25:36;;;;;;;8.68;4.65;;;6.00;99.90;;;;;;5108965;27;20039;-79
2023/12/15 09:28:05;;;;;;;1.52;1.02;;;6.10;99.90;;;;;;5127625;27;20041;-78
2023/12/15 09:30:33;;;;;;;1.20;1.00;;;6.20;99.90;;;;;;5133299;27;20039;-78
2023/12/15 09:32:59;;;;;;;0.77;0.77;;;6.20;99.90;;;;;;5130268;27;20062;-80
2023/12/15 09:35:25;;;;;;;0.57;0.57;;;6.20;99.90;;;;;;5126454;27;20067;-80
2023/12/15 09:37:50;;;;;;;0.80;0.80;;;6.40;99.90;;;;;;5111932;27;20090;-80
2023/12/15 09:40:23;;;;;;;0.82;0.82;;;6.30;99.90;;;;;;5130519;27;20556;-81
2023/12/15 09:42:50;;;;;;;0.60;0.60;;;6.40;99.90;;;;;;5121728;27;20498;-80
2023/12/15 09:45:16;;;;;;;1.17;1.08;;;6.40;99.90;;;;;;5094533;27;20047;-80
2023/12/15 09:47:47;;;;;;;1.45;1.38;;;6.50;99.90;;;;;;5133251;27;20077;-79
2023/12/15 09:50:13;;;;;;;0.85;0.85;;;6.60;99.90;;;;;;5132863;27;20688;-78
2023/12/15 09:52:39;;;;;;;0.40;0.40;;;6.80;99.90;;;;;;5134834;27;20118;-80
2023/12/15 09:55:06;;;;;;;0.63;0.63;;;6.70;99.90;;;;;;5119654;27;20500;-81
2023/12/15 09:57:39;;;;;;;0.40;0.40;;;6.70;99.90;;;;;;5131459;27;20400;-79
2023/12/15 10:00:09;;;;;;;0.40;0.40;;;6.80;99.90;;;;;;5128345;27;20126;-79
2023/12/15 10:02:38;;;;;;;0.70;0.70;;;6.90;99.90;;;;;;5134582;27;20034;-79
2023/12/15 10:05:04;;;;;;;0.40;0.40;;;6.90;99.90;;;;;;5111639;27;20072;-79
2023/12/15 10:07:31;;;;;;;0.90;0.90;;;;;;;;;;5133335;27;20035;-80
2023/12/15 10:09:57;;;;;;;0.60;0.60;;;7.10;99.90;;;;;;5134436;27;20038;-79
2023/12/15 10:12:22;;;;;;;0.40;0.40;;;7.10;99.90;;;;;;5134803;27;20035;-79
2023/12/15 10:14:49;;;;;;;0.65;0.65;;;7.20;99.90;;;;;;5115748;27;20046;-79
2023/12/15 10:17:15;;;;;;;0.40;0.40;;;7.30;99.90;;;;;;5133941;27;20043;-80
2023/12/15 10:19:40;;;;;;;0.50;0.50;;;7.30;99.90;;;;;;5112607;27;20046;-81
2023/12/15 10:22:06;;;;;;;0.40;0.40;;;8.30;99.90;;;;;;5128991;27;20046;-79
2023/12/15 10:24:35;;;;;;;1.38;1.38;;;7.30;99.90;;;;;;5135464;27;20038;-80
2023/12/15 10:27:03;;;;;;;0.60;0.60;;;7.30;99.90;;;;;;5129584;27;20637;-80
2023/12/15 10:29:29;;;;;;;0.40;0.40;;;7.30;99.90;;;;;;5123996;27;20126;-79
2023/12/15 10:31:55;;;;;;;0.50;0.50;;;7.30;99.90;;;;;;5125768;27;20134;-79
2023/12/15 10:34:26;;;;;;;0.93;0.93;;;7.40;99.90;;;;;;5128645;27;20119;-79
2023/12/15 10:36:53;;;;;;;0.68;0.50;;;7.40;99.90;;;;;;5133841;27;20070;-79
2023/12/15 10:39:19;;;;;;;0.40;0.40;;;7.40;99.90;;;;;;5128631;27;20035;-79
2023/12/15 10:41:46;;;;;;;1.13;1.13;;;7.60;99.90;;;;;;5133056;27;20178;-79
2023/12/15 10:44:12;;;;;;;0.45;0.45;;;7.40;99.90;;;;;;5127610;27;20385;-78
2023/12/15 10:46:44;;;;;;;0.60;0.60;;;7.50;99.90;;;;;;5105662;28;20396;-79
2023/12/15 10:49:12;;;;;;;0.52;0.52;;;7.50;99.90;;;;;;5128535;27;20051;-78
2023/12/15 10:51:41;;;;;;;3.05;1.15;;;7.50;99.90;;;;;;5132042;27;20038;-78
2023/12/15 10:54:08;;;;;;;0.40;0.40;;;7.60;99.90;;;;;;5121984;28;20075;-80
2023/12/15 10:56:37;;;;;;;0.80;0.80;;;7.70;99.90;;;;;;5129952;27;20064;-79
2023/12/15 10:59:05;;;;;;;0.73;0.73;;;7.70;99.90;;;;;;5109027;28;20124;-78
2023/12/15 11:01:33;;;;;;;0.50;0.50;;;7.70;99.90;;;;;;5129674;27;20096;-79
2023/12/15 11:03:59;;;;;;;1.42;1.38;;;7.70;99.90;;;;;;5110526;27;20043;-78
2023/12/15 11:06:31;;;;;;;0.68;0.68;;;7.90;99.90;;;;;;5123155;27;20043;-79
2023/12/15 11:09:04;;;;;;;0.40;0.40;;;7.80;99.90;;;;;;5129562;27;20438;-80
2023/12/15 11:11:30;;;;;;;1.27;1.27;;;7.90;99.90;;;;;;5106668;27;20062;-78
2023/12/15 11:14:01;;;;;;;1.05;1.05;;;7.90;99.90;;;;;;5131594;27;20495;-78
2023/12/15 11:16:31;;;;;;;0.70;0.70;;;8.00;99.90;;;;;;5122507;27;20044;-80
2023/12/15 11:18:59;;;;;;;0.50;0.50;;;7.90;99.90;;;;;;5130833;27;20043;-79
2023/12/15 11:21:26;;;;;;;2.33;2.13;;;8.00;99.90;;;;;;5127904;27;20561;-79
2023/12/15 11:24:02;;;;;;;0.50;0.50;;;8.00;99.90;;;;;;5128272;27;20031;-78
2023/12/15 11:26:39;;;;;;;2.53;1.00;;;8.00;99.90;;;;;;5112726;27;20039;-80
2023/12/15 11:29:08;;;;;;;0.50;0.50;;;8.10;99.90;;;;;;5130498;27;20064;-79
2023/12/15 11:31:34;;;;;;;0.93;0.93;;;8.10;99.90;;;;;;5132016;27;20062;-79
2023/12/15 11:34:04;;;;;;;0.50;0.50;;;8.20;99.90;;;;;;5126970;27;20049;-79
2023/12/15 11:36:51;;;;;;;0.52;0.52;;;8.30;99.90;;;;;;5098239;27;20057;-79
2023/12/15 11:39:24;;;;;;;0.63;0.63;;;8.40;99.90;;;;;;5128377;27;20055;-79
2023/12/15 11:41:50;;;;;;;0.60;0.60;;;8.40;99.90;;;;;;5109994;27;20039;-79
2023/12/15 11:44:16;;;;;;;0.68;0.68;;;8.40;99.90;;;;;;5113267;27;20070;-79
2023/12/15 11:46:41;;;;;;;0.50;0.50;;;8.40;99.90;;;;;;5128737;27;20400;-79
2023/12/15 11:49:08;;;;;;;1.95;0.98;;;8.40;99.90;;;;;;5113081;27;20038;-78
2023/12/15 11:51:34;;;;;;;2.63;0.82;;;8.40;99.90;;;;;;5100684;27;20039;-79
2023/12/15 11:54:02;;;;;;;2.15;1.95;;;8.30;99.90;;;;;;5131122;27;20099;-80
2023/12/15 11:56:28;;;;;;;0.70;0.70;;;8.30;99.90;;;;;;5136235;27;20069;-78
2023/12/15 11:58:53;;;;;;;1.40;1.30;;;8.40;99.90;;;;;;5113477;27;20062;-78
2023/12/15 12:01:19;;;;;;;0.60;0.60;;;8.50;99.90;;;;;;5113562;27;20035;-80
2023/12/15 12:03:45;;;;;;;0.50;0.50;;;8.60;99.90;;;;;;5118012;27;20039;-80
2023/12/15 12:06:11;;;;;;;0.50;0.50;;;8.70;99.90;;;;;;5139412;27;20475;-78
2023/12/15 12:08:37;;;;;;;0.40;0.40;;;8.60;99.90;;;;;;5116417;27;20050;-79
2023/12/15 12:11:04;;;;;;;0.40;0.40;;;8.70;99.90;;;;;;5130353;27;20077;-79
2023/12/15 12:13:35;;;;;;;0.82;0.82;;;8.80;99.90;;;;;;5129980;27;20054;-79
2023/12/15 12:16:02;;;;;;;0.40;0.40;;;8.80;99.90;;;;;;5106091;27;20548;-79
2023/12/15 12:18:29;;;;;;;1.20;1.15;;;;;;;;;;5127180;27;20074;-78
2023/12/15 12:21:09;;;;;;;0.40;0.40;;;8.90;99.90;;;;;;5128525;27;20027;-78
2023/12/15 12:23:35;;;;;;;0.57;0.57;;;8.80;99.90;;;;;;5146962;27;20081;-79
2023/12/15 12:26:01;;;;;;;1.38;1.38;;;8.80;99.90;;;;;;5128946;27;20035;-78
2023/12/15 12:28:48;;;;;;;0.75;0.63;;;8.70;99.90;;;;;;5130093;27;20043;-78
2023/12/15 12:31:15;;;;;;;1.07;1.07;;;8.70;99.90;;;;;;5130564;27;20077;-79
2023/12/15 12:33:40;;;;;;;0.80;0.80;;;8.70;99.90;;;;;;5128470;27;20070;-79
2023/12/15 12:36:08;;;;;;;0.75;0.75;;;8.70;99.90;;;;;;5129663;27;20174;-79
2023/12/15 12:38:37;;;;;;;1.13;0.70;;;8.70;99.90;;;;;;5110279;27;20043;-79
2023/12/15 12:41:05;;;;;;;0.50;0.50;;;8.70;99.90;;;;;;5130645;27;20108;-79
2023/12/15 12:43:34;;;;;;;2.55;2.05;;;8.70;99.90;;;;;;5130359;27;20064;-80
2023/12/15 12:46:00;;;;;;;0.43;0.43;;;8.70;99.90;;;;;;5130721;27;20110;-79
2023/12/15 12:48:27;;;;;;;0.43;0.43;;;8.80;99.90;;;;;;5129196;27;20183;-77
2023/12/15 12:50:52;;;;;;;0.40;0.40;;;8.80;99.90;;;;;;5129516;27;20058;-80
2023/12/15 12:53:18;;;;;;;0.70;0.70;;;8.80;99.90;;;;;;5111355;27;20043;-78
2023/12/15 12:55:44;;;;;;;;;;;8.90;99.90;;;;;;5128060;27;20107;-80